Aviation Digital Data Service (ADDS)

Output produced by TAFs form (0312 UTC 30 September 2016)
found at http://aviationweather.gov/adds/tafs/
 
KCNM 292320Z 3000/3024 14006KT P6SM SCT250 
     FM301800 16010KT P6SM SCT120